sensor_id;sensor_type;location;lat;lon;timestamp;P1;durP1;ratioP1;P2;durP2;ratioP2
79338;SDS011;68809;41.712;44.768;2023-05-17T00:02:09;7.68;;;3.70;;
79338;SDS011;68809;41.712;44.768;2023-05-17T00:04:35;10.10;;;4.37;;
79338;SDS011;68809;41.712;44.768;2023-05-17T00:07:01;5.65;;;3.47;;
79338;SDS011;68809;41.712;44.768;2023-05-17T00:09:28;7.72;;;3.40;;
79338;SDS011;68809;41.712;44.768;2023-05-17T00:11:54;19.75;;;10.25;;
79338;SDS011;68809;41.712;44.768;2023-05-17T00:14:20;7.13;;;3.92;;
79338;SDS011;68809;41.712;44.768;2023-05-17T00:16:46;6.53;;;3.80;;
79338;SDS011;68809;41.712;44.768;2023-05-17T00:19:12;6.78;;;3.55;;
79338;SDS011;68809;41.712;44.768;2023-05-17T00:21:39;7.95;;;3.60;;
79338;SDS011;68809;41.712;44.768;2023-05-17T00:24:05;6.07;;;3.80;;
79338;SDS011;68809;41.712;44.768;2023-05-17T00:26:31;6.60;;;3.72;;
79338;SDS011;68809;41.712;44.768;2023-05-17T00:28:58;6.63;;;3.63;;
79338;SDS011;68809;41.712;44.768;2023-05-17T00:31:24;6.70;;;3.45;;
79338;SDS011;68809;41.712;44.768;2023-05-17T00:33:51;7.10;;;3.40;;
79338;SDS011;68809;41.712;44.768;2023-05-17T00:36:17;7.20;;;3.55;;
79338;SDS011;68809;41.712;44.768;2023-05-17T00:38:43;7.70;;;3.60;;
79338;SDS011;68809;41.712;44.768;2023-05-17T00:41:09;6.40;;;3.60;;
79338;SDS011;68809;41.712;44.768;2023-05-17T00:43:36;7.93;;;4.00;;
79338;SDS011;68809;41.712;44.768;2023-05-17T00:46:02;6.95;;;3.80;;
79338;SDS011;68809;41.712;44.768;2023-05-17T00:48:28;5.93;;;3.40;;
79338;SDS011;68809;41.712;44.768;2023-05-17T00:50:55;8.05;;;3.80;;
79338;SDS011;68809;41.712;44.768;2023-05-17T00:53:21;5.97;;;3.40;;
79338;SDS011;68809;41.712;44.768;2023-05-17T00:55:48;7.25;;;3.70;;
79338;SDS011;68809;41.712;44.768;2023-05-17T00:58:14;8.15;;;3.83;;
79338;SDS011;68809;41.712;44.768;2023-05-17T01:00:41;6.30;;;3.72;;
79338;SDS011;68809;41.712;44.768;2023-05-17T01:03:08;7.10;;;3.80;;
79338;SDS011;68809;41.712;44.768;2023-05-17T01:05:34;5.97;;;3.67;;
79338;SDS011;68809;41.712;44.768;2023-05-17T01:08:01;8.15;;;4.43;;
79338;SDS011;68809;41.712;44.768;2023-05-17T01:10:48;9.10;;;4.43;;
79338;SDS011;68809;41.712;44.768;2023-05-17T01:13:36;7.90;;;4.03;;
79338;SDS011;68809;41.712;44.768;2023-05-17T01:18:42;7.33;;;3.90;;
79338;SDS011;68809;41.712;44.768;2023-05-17T01:21:16;7.60;;;4.10;;
79338;SDS011;68809;41.712;44.768;2023-05-17T01:24:26;10.00;;;4.28;;
79338;SDS011;68809;41.712;44.768;2023-05-17T01:26:55;7.32;;;4.10;;
79338;SDS011;68809;41.712;44.768;2023-05-17T01:29:23;8.60;;;4.63;;
79338;SDS011;68809;41.712;44.768;2023-05-17T01:31:55;9.00;;;4.40;;
79338;SDS011;68809;41.712;44.768;2023-05-17T01:34:27;11.73;;;4.75;;
79338;SDS011;68809;41.712;44.768;2023-05-17T01:36:53;8.43;;;4.38;;
79338;SDS011;68809;41.712;44.768;2023-05-17T01:39:20;8.48;;;4.40;;
79338;SDS011;68809;41.712;44.768;2023-05-17T01:41:50;8.85;;;4.20;;
79338;SDS011;68809;41.712;44.768;2023-05-17T01:44:31;7.70;;;4.50;;
79338;SDS011;68809;41.712;44.768;2023-05-17T01:47:08;7.20;;;4.35;;
79338;SDS011;68809;41.712;44.768;2023-05-17T01:49:45;11.05;;;5.40;;
79338;SDS011;68809;41.712;44.768;2023-05-17T01:52:34;9.02;;;4.80;;
79338;SDS011;68809;41.712;44.768;2023-05-17T01:55:18;7.80;;;4.20;;
79338;SDS011;68809;41.712;44.768;2023-05-17T01:58:05;8.27;;;3.83;;
79338;SDS011;68809;41.712;44.768;2023-05-17T02:00:33;7.10;;;4.20;;
79338;SDS011;68809;41.712;44.768;2023-05-17T02:02:59;8.15;;;3.92;;
79338;SDS011;68809;41.712;44.768;2023-05-17T02:05:26;6.20;;;4.00;;
79338;SDS011;68809;41.712;44.768;2023-05-17T02:07:52;6.32;;;3.70;;
79338;SDS011;68809;41.712;44.768;2023-05-17T02:10:18;7.50;;;4.07;;
79338;SDS011;68809;41.712;44.768;2023-05-17T02:12:45;7.55;;;4.07;;
79338;SDS011;68809;41.712;44.768;2023-05-17T02:15:11;8.48;;;3.90;;
79338;SDS011;68809;41.712;44.768;2023-05-17T02:17:39;7.10;;;4.20;;
79338;SDS011;68809;41.712;44.768;2023-05-17T02:20:06;7.63;;;4.30;;
79338;SDS011;68809;41.712;44.768;2023-05-17T02:22:33;7.73;;;4.40;;
79338;SDS011;68809;41.712;44.768;2023-05-17T02:24:59;11.05;;;5.07;;
79338;SDS011;68809;41.712;44.768;2023-05-17T02:27:26;10.30;;;5.43;;
79338;SDS011;68809;41.712;44.768;2023-05-17T02:29:52;12.00;;;5.50;;
79338;SDS011;68809;41.712;44.768;2023-05-17T02:32:19;11.57;;;5.30;;
79338;SDS011;68809;41.712;44.768;2023-05-17T02:34:45;9.70;;;5.00;;
79338;SDS011;68809;41.712;44.768;2023-05-17T02:37:11;10.68;;;5.50;;
79338;SDS011;68809;41.712;44.768;2023-05-17T02:39:37;10.07;;;5.72;;
79338;SDS011;68809;41.712;44.768;2023-05-17T02:42:05;9.27;;;5.50;;
79338;SDS011;68809;41.712;44.768;2023-05-17T02:44:31;12.70;;;6.05;;
79338;SDS011;68809;41.712;44.768;2023-05-17T02:46:57;8.37;;;4.43;;
79338;SDS011;68809;41.712;44.768;2023-05-17T02:49:23;12.07;;;5.32;;
79338;SDS011;68809;41.712;44.768;2023-05-17T02:51:49;12.15;;;5.35;;
79338;SDS011;68809;41.712;44.768;2023-05-17T02:54:16;11.77;;;5.57;;
79338;SDS011;68809;41.712;44.768;2023-05-17T02:56:42;9.50;;;5.55;;
79338;SDS011;68809;41.712;44.768;2023-05-17T02:59:08;10.40;;;5.63;;
79338;SDS011;68809;41.712;44.768;2023-05-17T03:01:36;9.95;;;5.70;;
79338;SDS011;68809;41.712;44.768;2023-05-17T03:04:03;10.65;;;5.55;;
79338;SDS011;68809;41.712;44.768;2023-05-17T03:06:29;10.65;;;5.60;;
79338;SDS011;68809;41.712;44.768;2023-05-17T03:08:56;11.75;;;5.90;;
79338;SDS011;68809;41.712;44.768;2023-05-17T03:11:22;11.13;;;5.53;;
79338;SDS011;68809;41.712;44.768;2023-05-17T03:13:49;10.35;;;5.97;;
79338;SDS011;68809;41.712;44.768;2023-05-17T03:16:19;11.88;;;6.03;;
79338;SDS011;68809;41.712;44.768;2023-05-17T03:18:48;12.98;;;5.70;;
79338;SDS011;68809;41.712;44.768;2023-05-17T03:21:14;10.10;;;5.72;;
79338;SDS011;68809;41.712;44.768;2023-05-17T03:23:40;9.40;;;5.40;;
79338;SDS011;68809;41.712;44.768;2023-05-17T03:26:07;9.35;;;5.15;;
79338;SDS011;68809;41.712;44.768;2023-05-17T03:28:39;9.82;;;5.90;;
79338;SDS011;68809;41.712;44.768;2023-05-17T03:31:06;11.70;;;6.20;;
79338;SDS011;68809;41.712;44.768;2023-05-17T03:33:33;11.73;;;5.82;;
79338;SDS011;68809;41.712;44.768;2023-05-17T03:36:00;20.17;;;10.50;;
79338;SDS011;68809;41.712;44.768;2023-05-17T03:38:27;12.98;;;6.40;;
79338;SDS011;68809;41.712;44.768;2023-05-17T03:40:53;14.50;;;6.35;;
79338;SDS011;68809;41.712;44.768;2023-05-17T03:43:20;11.40;;;6.07;;
79338;SDS011;68809;41.712;44.768;2023-05-17T03:45:46;14.25;;;5.80;;
79338;SDS011;68809;41.712;44.768;2023-05-17T03:48:12;11.70;;;6.03;;
79338;SDS011;68809;41.712;44.768;2023-05-17T03:50:39;11.07;;;5.65;;
79338;SDS011;68809;41.712;44.768;2023-05-17T03:53:08;11.20;;;5.85;;
79338;SDS011;68809;41.712;44.768;2023-05-17T03:55:34;11.00;;;5.57;;
79338;SDS011;68809;41.712;44.768;2023-05-17T03:58:01;11.25;;;5.63;;
79338;SDS011;68809;41.712;44.768;2023-05-17T04:00:28;11.63;;;6.03;;
79338;SDS011;68809;41.712;44.768;2023-05-17T04:02:59;11.13;;;5.90;;
79338;SDS011;68809;41.712;44.768;2023-05-17T04:05:25;12.55;;;5.68;;
79338;SDS011;68809;41.712;44.768;2023-05-17T04:07:52;9.30;;;5.20;;
79338;SDS011;68809;41.712;44.768;2023-05-17T04:10:19;9.00;;;5.00;;
79338;SDS011;68809;41.712;44.768;2023-05-17T04:12:46;9.50;;;5.40;;
79338;SDS011;68809;41.712;44.768;2023-05-17T04:15:12;11.00;;;5.50;;
79338;SDS011;68809;41.712;44.768;2023-05-17T04:17:39;11.02;;;5.30;;
79338;SDS011;68809;41.712;44.768;2023-05-17T04:20:06;10.35;;;5.53;;
79338;SDS011;68809;41.712;44.768;2023-05-17T04:22:33;11.38;;;5.43;;
79338;SDS011;68809;41.712;44.768;2023-05-17T04:24:59;10.47;;;5.10;;
79338;SDS011;68809;41.712;44.768;2023-05-17T04:27:30;10.18;;;5.18;;
79338;SDS011;68809;41.712;44.768;2023-05-17T04:29:56;10.40;;;5.43;;
79338;SDS011;68809;41.712;44.768;2023-05-17T04:32:23;10.38;;;4.93;;
79338;SDS011;68809;41.712;44.768;2023-05-17T04:34:49;11.27;;;5.93;;
79338;SDS011;68809;41.712;44.768;2023-05-17T04:37:17;11.23;;;5.00;;
79338;SDS011;68809;41.712;44.768;2023-05-17T04:39:47;12.68;;;5.28;;
79338;SDS011;68809;41.712;44.768;2023-05-17T04:42:13;9.27;;;5.18;;
79338;SDS011;68809;41.712;44.768;2023-05-17T04:44:45;9.13;;;4.88;;
79338;SDS011;68809;41.712;44.768;2023-05-17T04:47:12;11.15;;;5.22;;
79338;SDS011;68809;41.712;44.768;2023-05-17T04:49:40;10.00;;;4.80;;
79338;SDS011;68809;41.712;44.768;2023-05-17T04:52:06;10.13;;;4.70;;
79338;SDS011;68809;41.712;44.768;2023-05-17T04:54:33;10.80;;;5.30;;
79338;SDS011;68809;41.712;44.768;2023-05-17T04:57:00;9.40;;;4.95;;
79338;SDS011;68809;41.712;44.768;2023-05-17T04:59:45;7.88;;;4.70;;
79338;SDS011;68809;41.712;44.768;2023-05-17T05:02:11;9.50;;;5.23;;
79338;SDS011;68809;41.712;44.768;2023-05-17T05:04:38;9.90;;;5.32;;
79338;SDS011;68809;41.712;44.768;2023-05-17T05:07:05;10.20;;;5.15;;
79338;SDS011;68809;41.712;44.768;2023-05-17T05:09:31;11.00;;;5.13;;
79338;SDS011;68809;41.712;44.768;2023-05-17T05:11:58;11.70;;;5.20;;
79338;SDS011;68809;41.712;44.768;2023-05-17T05:14:24;14.40;;;5.70;;
79338;SDS011;68809;41.712;44.768;2023-05-17T05:16:50;11.02;;;5.43;;
79338;SDS011;68809;41.712;44.768;2023-05-17T05:19:16;9.60;;;5.60;;
79338;SDS011;68809;41.712;44.768;2023-05-17T05:21:44;10.35;;;5.70;;
79338;SDS011;68809;41.712;44.768;2023-05-17T05:24:12;11.20;;;5.70;;
79338;SDS011;68809;41.712;44.768;2023-05-17T05:26:38;12.40;;;5.67;;
79338;SDS011;68809;41.712;44.768;2023-05-17T05:29:05;9.32;;;5.43;;
79338;SDS011;68809;41.712;44.768;2023-05-17T05:31:32;12.98;;;6.38;;
79338;SDS011;68809;41.712;44.768;2023-05-17T05:34:00;12.10;;;5.80;;
79338;SDS011;68809;41.712;44.768;2023-05-17T05:36:26;12.55;;;6.30;;
79338;SDS011;68809;41.712;44.768;2023-05-17T05:38:53;10.77;;;6.10;;
79338;SDS011;68809;41.712;44.768;2023-05-17T05:41:20;11.32;;;6.38;;
79338;SDS011;68809;41.712;44.768;2023-05-17T05:43:46;12.68;;;6.15;;
79338;SDS011;68809;41.712;44.768;2023-05-17T05:46:13;13.52;;;6.20;;
79338;SDS011;68809;41.712;44.768;2023-05-17T05:48:40;11.20;;;6.85;;
79338;SDS011;68809;41.712;44.768;2023-05-17T05:51:07;13.93;;;6.70;;
79338;SDS011;68809;41.712;44.768;2023-05-17T05:53:35;12.77;;;6.32;;
79338;SDS011;68809;41.712;44.768;2023-05-17T05:56:02;11.55;;;5.90;;
79338;SDS011;68809;41.712;44.768;2023-05-17T05:58:30;10.95;;;5.82;;
79338;SDS011;68809;41.712;44.768;2023-05-17T06:00:56;11.10;;;5.13;;
79338;SDS011;68809;41.712;44.768;2023-05-17T06:03:23;8.67;;;5.33;;
79338;SDS011;68809;41.712;44.768;2023-05-17T06:05:49;9.82;;;5.60;;
79338;SDS011;68809;41.712;44.768;2023-05-17T06:08:15;10.18;;;5.72;;
79338;SDS011;68809;41.712;44.768;2023-05-17T06:10:41;12.40;;;5.85;;
79338;SDS011;68809;41.712;44.768;2023-05-17T06:13:07;8.98;;;5.20;;
79338;SDS011;68809;41.712;44.768;2023-05-17T06:15:34;9.77;;;4.53;;
79338;SDS011;68809;41.712;44.768;2023-05-17T06:18:00;7.20;;;4.47;;
79338;SDS011;68809;41.712;44.768;2023-05-17T06:20:26;7.95;;;4.90;;
79338;SDS011;68809;41.712;44.768;2023-05-17T06:22:52;10.40;;;5.20;;
79338;SDS011;68809;41.712;44.768;2023-05-17T06:25:19;9.90;;;5.60;;
79338;SDS011;68809;41.712;44.768;2023-05-17T06:27:45;8.47;;;5.00;;
79338;SDS011;68809;41.712;44.768;2023-05-17T06:30:11;10.15;;;5.68;;
79338;SDS011;68809;41.712;44.768;2023-05-17T06:32:38;10.38;;;5.53;;
79338;SDS011;68809;41.712;44.768;2023-05-17T06:35:04;10.88;;;5.60;;
79338;SDS011;68809;41.712;44.768;2023-05-17T06:37:31;10.02;;;5.80;;
79338;SDS011;68809;41.712;44.768;2023-05-17T06:40:04;10.37;;;5.60;;
79338;SDS011;68809;41.712;44.768;2023-05-17T06:42:32;13.57;;;6.45;;
79338;SDS011;68809;41.712;44.768;2023-05-17T06:44:58;11.27;;;5.93;;
79338;SDS011;68809;41.712;44.768;2023-05-17T06:47:25;10.60;;;5.82;;
79338;SDS011;68809;41.712;44.768;2023-05-17T06:49:51;10.30;;;5.97;;
79338;SDS011;68809;41.712;44.768;2023-05-17T06:52:17;10.97;;;5.47;;
79338;SDS011;68809;41.712;44.768;2023-05-17T06:54:44;9.95;;;5.82;;
79338;SDS011;68809;41.712;44.768;2023-05-17T06:57:10;9.68;;;5.13;;
79338;SDS011;68809;41.712;44.768;2023-05-17T06:59:36;10.70;;;4.95;;
79338;SDS011;68809;41.712;44.768;2023-05-17T07:02:03;9.45;;;5.22;;
79338;SDS011;68809;41.712;44.768;2023-05-17T07:04:29;9.67;;;5.23;;
79338;SDS011;68809;41.712;44.768;2023-05-17T07:06:56;8.27;;;4.32;;
79338;SDS011;68809;41.712;44.768;2023-05-17T07:09:22;10.82;;;4.65;;
79338;SDS011;68809;41.712;44.768;2023-05-17T07:11:48;8.75;;;5.15;;
79338;SDS011;68809;41.712;44.768;2023-05-17T07:14:15;9.50;;;4.70;;
79338;SDS011;68809;41.712;44.768;2023-05-17T07:16:41;9.53;;;4.57;;
79338;SDS011;68809;41.712;44.768;2023-05-17T07:19:07;8.20;;;4.25;;
79338;SDS011;68809;41.712;44.768;2023-05-17T07:21:33;7.30;;;4.18;;
79338;SDS011;68809;41.712;44.768;2023-05-17T07:23:59;9.32;;;5.20;;
79338;SDS011;68809;41.712;44.768;2023-05-17T07:26:26;8.35;;;4.63;;
79338;SDS011;68809;41.712;44.768;2023-05-17T07:28:52;8.27;;;4.80;;
79338;SDS011;68809;41.712;44.768;2023-05-17T07:31:18;7.85;;;4.40;;
79338;SDS011;68809;41.712;44.768;2023-05-17T07:33:45;7.35;;;4.50;;
79338;SDS011;68809;41.712;44.768;2023-05-17T07:36:12;11.63;;;4.28;;
79338;SDS011;68809;41.712;44.768;2023-05-17T07:38:38;7.50;;;4.53;;
79338;SDS011;68809;41.712;44.768;2023-05-17T07:41:05;8.60;;;4.60;;
79338;SDS011;68809;41.712;44.768;2023-05-17T07:43:37;7.60;;;4.30;;
79338;SDS011;68809;41.712;44.768;2023-05-17T07:46:03;7.38;;;4.40;;
79338;SDS011;68809;41.712;44.768;2023-05-17T07:48:30;8.32;;;4.50;;
79338;SDS011;68809;41.712;44.768;2023-05-17T07:50:56;8.65;;;4.10;;
79338;SDS011;68809;41.712;44.768;2023-05-17T07:53:22;8.50;;;4.20;;
79338;SDS011;68809;41.712;44.768;2023-05-17T07:55:49;9.27;;;4.25;;
79338;SDS011;68809;41.712;44.768;2023-05-17T07:58:15;9.55;;;4.25;;
79338;SDS011;68809;41.712;44.768;2023-05-17T08:00:42;10.88;;;4.05;;
79338;SDS011;68809;41.712;44.768;2023-05-17T08:03:08;6.40;;;3.60;;
79338;SDS011;68809;41.712;44.768;2023-05-17T08:05:34;9.10;;;3.80;;
79338;SDS011;68809;41.712;44.768;2023-05-17T08:08:00;7.18;;;3.80;;
79338;SDS011;68809;41.712;44.768;2023-05-17T08:10:27;7.25;;;3.45;;
79338;SDS011;68809;41.712;44.768;2023-05-17T08:12:53;6.40;;;3.90;;
79338;SDS011;68809;41.712;44.768;2023-05-17T08:15:19;6.35;;;3.38;;
79338;SDS011;68809;41.712;44.768;2023-05-17T08:17:46;8.20;;;3.47;;
79338;SDS011;68809;41.712;44.768;2023-05-17T08:20:12;7.45;;;3.50;;
79338;SDS011;68809;41.712;44.768;2023-05-17T08:22:38;8.65;;;3.80;;
79338;SDS011;68809;41.712;44.768;2023-05-17T08:25:05;5.78;;;3.60;;
79338;SDS011;68809;41.712;44.768;2023-05-17T08:27:32;5.80;;;3.45;;
79338;SDS011;68809;41.712;44.768;2023-05-17T08:29:58;5.57;;;3.33;;
79338;SDS011;68809;41.712;44.768;2023-05-17T08:32:24;6.38;;;3.70;;
79338;SDS011;68809;41.712;44.768;2023-05-17T08:34:51;5.30;;;3.30;;
79338;SDS011;68809;41.712;44.768;2023-05-17T08:37:17;5.38;;;3.25;;
79338;SDS011;68809;41.712;44.768;2023-05-17T08:39:43;8.63;;;3.15;;
79338;SDS011;68809;41.712;44.768;2023-05-17T08:42:10;7.53;;;3.60;;
79338;SDS011;68809;41.712;44.768;2023-05-17T08:44:36;7.63;;;3.50;;
79338;SDS011;68809;41.712;44.768;2023-05-17T08:47:03;6.00;;;3.30;;
79338;SDS011;68809;41.712;44.768;2023-05-17T08:49:32;5.85;;;3.80;;
79338;SDS011;68809;41.712;44.768;2023-05-17T08:51:59;6.05;;;3.50;;
79338;SDS011;68809;41.712;44.768;2023-05-17T08:54:35;7.03;;;3.50;;
79338;SDS011;68809;41.712;44.768;2023-05-17T08:57:02;6.22;;;3.70;;
79338;SDS011;68809;41.712;44.768;2023-05-17T08:59:31;6.68;;;3.78;;
79338;SDS011;68809;41.712;44.768;2023-05-17T09:02:00;7.60;;;3.30;;
79338;SDS011;68809;41.712;44.768;2023-05-17T09:04:27;8.48;;;3.40;;
79338;SDS011;68809;41.712;44.768;2023-05-17T09:06:55;9.33;;;5.10;;
79338;SDS011;68809;41.712;44.768;2023-05-17T09:09:21;7.00;;;3.75;;
79338;SDS011;68809;41.712;44.768;2023-05-17T09:11:48;6.10;;;3.60;;
79338;SDS011;68809;41.712;44.768;2023-05-17T09:14:14;6.85;;;3.20;;
79338;SDS011;68809;41.712;44.768;2023-05-17T09:16:43;6.97;;;3.45;;
79338;SDS011;68809;41.712;44.768;2023-05-17T09:19:13;7.10;;;3.27;;
79338;SDS011;68809;41.712;44.768;2023-05-17T09:21:43;7.13;;;3.65;;
79338;SDS011;68809;41.712;44.768;2023-05-17T09:24:10;6.03;;;3.20;;
79338;SDS011;68809;41.712;44.768;2023-05-17T09:26:37;8.15;;;3.58;;
79338;SDS011;68809;41.712;44.768;2023-05-17T09:29:11;6.05;;;3.33;;
79338;SDS011;68809;41.712;44.768;2023-05-17T09:31:40;5.57;;;3.17;;
79338;SDS011;68809;41.712;44.768;2023-05-17T09:34:07;5.82;;;3.40;;
79338;SDS011;68809;41.712;44.768;2023-05-17T09:36:36;9.07;;;3.80;;
79338;SDS011;68809;41.712;44.768;2023-05-17T09:39:04;5.60;;;3.25;;
79338;SDS011;68809;41.712;44.768;2023-05-17T09:41:33;8.35;;;3.63;;
79338;SDS011;68809;41.712;44.768;2023-05-17T09:44:10;8.90;;;4.00;;
79338;SDS011;68809;41.712;44.768;2023-05-17T09:46:37;7.05;;;3.60;;
79338;SDS011;68809;41.712;44.768;2023-05-17T09:49:07;8.25;;;3.85;;
79338;SDS011;68809;41.712;44.768;2023-05-17T09:51:40;6.15;;;3.53;;
79338;SDS011;68809;41.712;44.768;2023-05-17T09:54:08;7.32;;;3.80;;
79338;SDS011;68809;41.712;44.768;2023-05-17T09:56:35;8.00;;;3.80;;
79338;SDS011;68809;41.712;44.768;2023-05-17T09:59:02;7.85;;;4.10;;
79338;SDS011;68809;41.712;44.768;2023-05-17T10:01:29;8.65;;;4.47;;
79338;SDS011;68809;41.712;44.768;2023-05-17T10:03:59;8.65;;;4.35;;
79338;SDS011;68809;41.712;44.768;2023-05-17T10:06:27;9.77;;;5.75;;
79338;SDS011;68809;41.712;44.768;2023-05-17T10:08:56;6.40;;;3.70;;
79338;SDS011;68809;41.712;44.768;2023-05-17T10:11:27;7.40;;;4.13;;
79338;SDS011;68809;41.712;44.768;2023-05-17T10:16:26;9.70;;;4.30;;
79338;SDS011;68809;41.712;44.768;2023-05-17T10:18:53;10.55;;;4.20;;
79338;SDS011;68809;41.712;44.768;2023-05-17T10:21:19;9.27;;;4.07;;
79338;SDS011;68809;41.712;44.768;2023-05-17T10:23:47;6.70;;;3.95;;
79338;SDS011;68809;41.712;44.768;2023-05-17T10:26:14;6.50;;;4.10;;
79338;SDS011;68809;41.712;44.768;2023-05-17T10:28:43;6.90;;;3.75;;
79338;SDS011;68809;41.712;44.768;2023-05-17T10:31:11;7.32;;;3.95;;
79338;SDS011;68809;41.712;44.768;2023-05-17T10:33:37;7.03;;;4.13;;
79338;SDS011;68809;41.712;44.768;2023-05-17T10:36:04;6.45;;;3.50;;
79338;SDS011;68809;41.712;44.768;2023-05-17T10:38:31;6.95;;;3.97;;
79338;SDS011;68809;41.712;44.768;2023-05-17T10:40:57;6.55;;;3.88;;
79338;SDS011;68809;41.712;44.768;2023-05-17T10:43:24;7.35;;;3.67;;
79338;SDS011;68809;41.712;44.768;2023-05-17T10:45:51;7.77;;;3.90;;
79338;SDS011;68809;41.712;44.768;2023-05-17T10:48:18;8.25;;;4.60;;
79338;SDS011;68809;41.712;44.768;2023-05-17T10:50:45;9.30;;;4.90;;
79338;SDS011;68809;41.712;44.768;2023-05-17T10:53:11;8.38;;;3.90;;
79338;SDS011;68809;41.712;44.768;2023-05-17T10:55:41;9.52;;;4.10;;
79338;SDS011;68809;41.712;44.768;2023-05-17T11:00:39;8.18;;;4.10;;
79338;SDS011;68809;41.712;44.768;2023-05-17T11:03:13;7.40;;;3.88;;
79338;SDS011;68809;41.712;44.768;2023-05-17T11:08:44;7.47;;;3.95;;
79338;SDS011;68809;41.712;44.768;2023-05-17T11:11:17;8.63;;;4.90;;
79338;SDS011;68809;41.712;44.768;2023-05-17T11:13:54;7.45;;;4.20;;
79338;SDS011;68809;41.712;44.768;2023-05-17T11:16:21;8.18;;;4.10;;
79338;SDS011;68809;41.712;44.768;2023-05-17T11:18:52;8.70;;;3.80;;
79338;SDS011;68809;41.712;44.768;2023-05-17T11:21:20;10.70;;;4.30;;
79338;SDS011;68809;41.712;44.768;2023-05-17T11:23:47;7.40;;;4.20;;
79338;SDS011;68809;41.712;44.768;2023-05-17T11:26:27;7.93;;;4.20;;
79338;SDS011;68809;41.712;44.768;2023-05-17T11:29:05;10.18;;;4.20;;
79338;SDS011;68809;41.712;44.768;2023-05-17T11:31:35;7.82;;;4.30;;
79338;SDS011;68809;41.712;44.768;2023-05-17T11:34:05;9.18;;;4.40;;
79338;SDS011;68809;41.712;44.768;2023-05-17T11:36:33;10.60;;;4.60;;
79338;SDS011;68809;41.712;44.768;2023-05-17T11:39:19;8.45;;;4.65;;
79338;SDS011;68809;41.712;44.768;2023-05-17T11:41:50;10.63;;;4.50;;
79338;SDS011;68809;41.712;44.768;2023-05-17T11:44:33;8.55;;;4.60;;
79338;SDS011;68809;41.712;44.768;2023-05-17T11:47:00;11.50;;;4.72;;
79338;SDS011;68809;41.712;44.768;2023-05-17T11:49:31;9.77;;;4.50;;
79338;SDS011;68809;41.712;44.768;2023-05-17T11:51:58;10.20;;;4.20;;
79338;SDS011;68809;41.712;44.768;2023-05-17T11:54:25;7.45;;;4.00;;
79338;SDS011;68809;41.712;44.768;2023-05-17T11:56:54;8.10;;;3.90;;
79338;SDS011;68809;41.712;44.768;2023-05-17T11:59:21;9.38;;;4.03;;
79338;SDS011;68809;41.712;44.768;2023-05-17T12:01:48;8.53;;;3.40;;
79338;SDS011;68809;41.712;44.768;2023-05-17T12:04:22;7.30;;;3.40;;
79338;SDS011;68809;41.712;44.768;2023-05-17T12:06:51;7.20;;;3.30;;
79338;SDS011;68809;41.712;44.768;2023-05-17T12:09:23;8.13;;;4.05;;
79338;SDS011;68809;41.712;44.768;2023-05-17T12:11:51;5.65;;;3.25;;
79338;SDS011;68809;41.712;44.768;2023-05-17T12:14:18;7.87;;;3.10;;
79338;SDS011;68809;41.712;44.768;2023-05-17T12:16:49;6.22;;;3.05;;
79338;SDS011;68809;41.712;44.768;2023-05-17T12:19:22;5.40;;;2.97;;
79338;SDS011;68809;41.712;44.768;2023-05-17T12:21:49;6.55;;;3.00;;
79338;SDS011;68809;41.712;44.768;2023-05-17T12:24:16;5.95;;;2.90;;
79338;SDS011;68809;41.712;44.768;2023-05-17T12:26:43;6.23;;;2.60;;
79338;SDS011;68809;41.712;44.768;2023-05-17T12:29:10;4.97;;;2.70;;
79338;SDS011;68809;41.712;44.768;2023-05-17T12:31:39;7.28;;;2.92;;
79338;SDS011;68809;41.712;44.768;2023-05-17T12:34:07;4.50;;;2.83;;
79338;SDS011;68809;41.712;44.768;2023-05-17T12:36:34;5.03;;;2.50;;
79338;SDS011;68809;41.712;44.768;2023-05-17T12:39:04;6.20;;;2.50;;
79338;SDS011;68809;41.712;44.768;2023-05-17T12:41:37;7.38;;;3.50;;
79338;SDS011;68809;41.712;44.768;2023-05-17T12:44:07;6.82;;;2.67;;
79338;SDS011;68809;41.712;44.768;2023-05-17T12:46:34;5.15;;;2.63;;
79338;SDS011;68809;41.712;44.768;2023-05-17T12:49:03;5.20;;;2.60;;
79338;SDS011;68809;41.712;44.768;2023-05-17T12:51:40;4.57;;;2.50;;
79338;SDS011;68809;41.712;44.768;2023-05-17T12:54:11;7.07;;;2.83;;
79338;SDS011;68809;41.712;44.768;2023-05-17T12:56:50;6.97;;;2.65;;
79338;SDS011;68809;41.712;44.768;2023-05-17T12:59:16;6.78;;;3.00;;
79338;SDS011;68809;41.712;44.768;2023-05-17T13:01:44;5.78;;;2.60;;
79338;SDS011;68809;41.712;44.768;2023-05-17T13:04:12;6.57;;;2.57;;
79338;SDS011;68809;41.712;44.768;2023-05-17T13:09:22;3.85;;;2.42;;
79338;SDS011;68809;41.712;44.768;2023-05-17T13:11:50;5.18;;;2.50;;
79338;SDS011;68809;41.712;44.768;2023-05-17T13:17:04;5.03;;;2.50;;
79338;SDS011;68809;41.712;44.768;2023-05-17T13:19:32;5.25;;;2.67;;
79338;SDS011;68809;41.712;44.768;2023-05-17T13:22:03;4.15;;;2.28;;
79338;SDS011;68809;41.712;44.768;2023-05-17T13:24:32;4.15;;;2.30;;
79338;SDS011;68809;41.712;44.768;2023-05-17T13:26:59;5.88;;;2.88;;
79338;SDS011;68809;41.712;44.768;2023-05-17T13:29:26;4.90;;;2.70;;
79338;SDS011;68809;41.712;44.768;2023-05-17T13:31:53;6.25;;;3.00;;
79338;SDS011;68809;41.712;44.768;2023-05-17T13:34:19;6.07;;;3.42;;
79338;SDS011;68809;41.712;44.768;2023-05-17T13:36:46;6.07;;;2.88;;
79338;SDS011;68809;41.712;44.768;2023-05-17T13:39:12;5.28;;;2.70;;
79338;SDS011;68809;41.712;44.768;2023-05-17T13:41:39;5.90;;;2.80;;
79338;SDS011;68809;41.712;44.768;2023-05-17T13:44:05;4.22;;;2.40;;
79338;SDS011;68809;41.712;44.768;2023-05-17T13:46:31;4.15;;;2.25;;
79338;SDS011;68809;41.712;44.768;2023-05-17T13:48:58;6.35;;;2.65;;
79338;SDS011;68809;41.712;44.768;2023-05-17T13:51:24;6.68;;;2.78;;
79338;SDS011;68809;41.712;44.768;2023-05-17T13:53:51;5.83;;;2.97;;
79338;SDS011;68809;41.712;44.768;2023-05-17T13:56:17;7.60;;;3.10;;
79338;SDS011;68809;41.712;44.768;2023-05-17T13:58:43;5.80;;;2.80;;
79338;SDS011;68809;41.712;44.768;2023-05-17T14:01:10;6.18;;;3.10;;
79338;SDS011;68809;41.712;44.768;2023-05-17T14:03:36;6.05;;;3.17;;
79338;SDS011;68809;41.712;44.768;2023-05-17T14:06:03;6.63;;;3.10;;
79338;SDS011;68809;41.712;44.768;2023-05-17T14:08:29;7.70;;;3.47;;
79338;SDS011;68809;41.712;44.768;2023-05-17T14:10:55;5.18;;;3.13;;
79338;SDS011;68809;41.712;44.768;2023-05-17T14:13:21;5.60;;;3.20;;
79338;SDS011;68809;41.712;44.768;2023-05-17T14:15:48;5.68;;;3.30;;
79338;SDS011;68809;41.712;44.768;2023-05-17T14:18:14;6.77;;;3.23;;
79338;SDS011;68809;41.712;44.768;2023-05-17T14:20:40;5.45;;;2.83;;
79338;SDS011;68809;41.712;44.768;2023-05-17T14:23:07;5.93;;;3.20;;
79338;SDS011;68809;41.712;44.768;2023-05-17T14:25:33;5.97;;;3.30;;
79338;SDS011;68809;41.712;44.768;2023-05-17T14:27:59;6.18;;;3.08;;
79338;SDS011;68809;41.712;44.768;2023-05-17T14:30:25;20.67;;;3.70;;
79338;SDS011;68809;41.712;44.768;2023-05-17T14:32:52;9.98;;;3.67;;
79338;SDS011;68809;41.712;44.768;2023-05-17T14:35:18;5.72;;;2.95;;
79338;SDS011;68809;41.712;44.768;2023-05-17T14:37:44;6.82;;;3.47;;
79338;SDS011;68809;41.712;44.768;2023-05-17T14:40:10;7.18;;;3.35;;
79338;SDS011;68809;41.712;44.768;2023-05-17T14:42:37;5.53;;;3.07;;
79338;SDS011;68809;41.712;44.768;2023-05-17T14:45:04;4.78;;;2.65;;
79338;SDS011;68809;41.712;44.768;2023-05-17T14:47:32;6.20;;;3.30;;
79338;SDS011;68809;41.712;44.768;2023-05-17T14:49:59;6.15;;;3.08;;
79338;SDS011;68809;41.712;44.768;2023-05-17T14:52:25;7.38;;;2.80;;